Saltar para o conteúdo principal

Pampilhosa da Serra, Fajão

ID 1210686 · 40.1457, -7.9270 mapa

Última leitura · 2026-05-09 18:00 (Europe/Lisbon)

Temperatura
9.3 °C
Humidade
91 %
Pressão
Precipitação
1.3 mm
Radiação
Velocidade do vento
Direcção do vento
Sem vento

Histórico de 24 horas

Hora (Europe/Lisbon) Temperatura Humidade Pressão Chuva Vento Direcção
2026-05-09 18:00 9.3 °C 91 % 1.3 mm
2026-05-09 17:00 11.0 °C 88 % 0.0 mm 23.8 km/h SW
2026-05-09 16:00 12.2 °C 85 % 0.0 mm 32.4 km/h S
2026-05-09 15:00 11.2 °C 95 % 1.5 mm 37.8 km/h S
2026-05-09 14:00 11.5 °C 93 % 0.0 mm 25.2 km/h S
2026-05-09 13:00 9.7 °C 97 % 0.0 mm 41.8 km/h S
2026-05-09 12:00 8.8 °C 98 % 0.0 mm 37.4 km/h SE
2026-05-09 11:00 8.1 °C 98 % 0.5 mm 30.6 km/h SE
2026-05-09 10:00 8.0 °C 97 % 2.5 mm 38.2 km/h SE
2026-05-09 09:00 8.6 °C 92 % 0.0 mm 41.0 km/h SE
2026-05-09 08:00 8.4 °C 94 % 0.0 mm 51.5 km/h SE
2026-05-09 07:00 8.2 °C 98 % 0.6 mm 46.4 km/h SE
2026-05-09 06:00 8.3 °C 97 % 0.1 mm 40.7 km/h SE
2026-05-09 05:00 8.2 °C 96 % 0.0 mm 38.9 km/h S
2026-05-09 04:00 8.1 °C 97 % 0.0 mm 43.6 km/h S
2026-05-09 03:00 8.2 °C 96 % 0.2 mm 41.0 km/h S
2026-05-09 02:00 8.9 °C 92 % 0.0 mm 52.2 km/h S
2026-05-09 01:00 9.0 °C 93 % 0.0 mm 37.8 km/h S
2026-05-09 00:00 9.2 °C 89 % 0.0 mm 41.8 km/h S
2026-05-08 23:00 9.3 °C 86 % 0.1 mm 25.2 km/h S
2026-05-08 22:00 11.3 °C 66 % 0.3 mm 33.1 km/h S
2026-05-08 21:00 12.4 °C 56 % 0.0 mm 26.6 km/h SE
2026-05-08 20:00 12.8 °C 56 % 0.0 mm 24.5 km/h SE
2026-05-08 19:00 13.4 °C 56 % 0.0 mm 25.2 km/h SE